sensor_id;sensor_type;location;lat;lon;timestamp;pressure;altitude;pressure_sealevel;temperature;humidity
20620;BME280;10469;42.720;23.252;2023-05-19T00:01:45;95134.78;;;11.50;100.00
20620;BME280;10469;42.720;23.252;2023-05-19T00:04:13;95129.31;;;11.45;100.00
20620;BME280;10469;42.720;23.252;2023-05-19T00:06:40;95141.56;;;11.53;100.00
20620;BME280;10469;42.720;23.252;2023-05-19T00:09:07;95129.53;;;11.44;100.00
20620;BME280;10469;42.720;23.252;2023-05-19T00:11:34;95141.56;;;11.53;100.00
20620;BME280;10469;42.720;23.252;2023-05-19T00:14:01;95122.53;;;11.43;100.00
20620;BME280;10469;42.720;23.252;2023-05-19T00:16:29;95142.25;;;11.60;100.00
20620;BME280;10469;42.720;23.252;2023-05-19T00:18:57;95138.88;;;11.53;100.00
20620;BME280;10469;42.720;23.252;2023-05-19T00:21:24;95140.25;;;11.55;100.00
20620;BME280;10469;42.720;23.252;2023-05-19T00:23:49;95125.31;;;11.60;100.00
20620;BME280;10469;42.720;23.252;2023-05-19T00:26:15;95117.50;;;11.46;100.00
20620;BME280;10469;42.720;23.252;2023-05-19T00:28:40;95112.25;;;11.40;100.00
20620;BME280;10469;42.720;23.252;2023-05-19T00:31:06;95122.78;;;11.41;100.00
20620;BME280;10469;42.720;23.252;2023-05-19T00:33:32;95118.78;;;11.44;100.00
20620;BME280;10469;42.720;23.252;2023-05-19T00:35:58;95105.16;;;11.34;100.00
20620;BME280;10469;42.720;23.252;2023-05-19T00:38:24;95122.53;;;11.43;100.00
20620;BME280;10469;42.720;23.252;2023-05-19T00:40:50;95128.25;;;11.35;100.00
20620;BME280;10469;42.720;23.252;2023-05-19T00:43:15;95116.25;;;11.37;100.00
20620;BME280;10469;42.720;23.252;2023-05-19T00:45:41;95105.66;;;11.19;100.00
20620;BME280;10469;42.720;23.252;2023-05-19T00:48:07;95112.03;;;11.18;100.00
20620;BME280;10469;42.720;23.252;2023-05-19T00:50:32;95116.13;;;11.09;100.00
20620;BME280;10469;42.720;23.252;2023-05-19T00:52:58;95118.25;;;10.95;100.00
20620;BME280;10469;42.720;23.252;2023-05-19T00:55:25;95113.81;;;10.89;100.00
20620;BME280;10469;42.720;23.252;2023-05-19T00:57:53;95109.84;;;10.79;100.00
20620;BME280;10469;42.720;23.252;2023-05-19T01:00:19;95113.09;;;10.82;100.00
20620;BME280;10469;42.720;23.252;2023-05-19T01:02:45;95111.22;;;10.70;100.00
20620;BME280;10469;42.720;23.252;2023-05-19T01:05:11;95120.75;;;10.66;100.00
20620;BME280;10469;42.720;23.252;2023-05-19T01:07:37;95122.88;;;10.64;100.00
20620;BME280;10469;42.720;23.252;2023-05-19T01:10:03;95123.31;;;10.61;100.00
20620;BME280;10469;42.720;23.252;2023-05-19T01:12:29;95121.56;;;10.55;100.00
20620;BME280;10469;42.720;23.252;2023-05-19T01:14:56;95116.66;;;10.52;100.00
20620;BME280;10469;42.720;23.252;2023-05-19T01:17:33;95109.56;;;10.46;100.00
20620;BME280;10469;42.720;23.252;2023-05-19T01:20:40;95127.63;;;10.50;100.00
20620;BME280;10469;42.720;23.252;2023-05-19T01:23:33;95124.47;;;10.42;100.00
20620;BME280;10469;42.720;23.252;2023-05-19T01:26:43;95114.38;;;10.25;100.00
20620;BME280;10469;42.720;23.252;2023-05-19T01:32:03;95132.53;;;10.23;100.00
20620;BME280;10469;42.720;23.252;2023-05-19T01:34:32;95118.16;;;10.18;100.00
20620;BME280;10469;42.720;23.252;2023-05-19T01:37:00;95105.25;;;10.15;100.00
20620;BME280;10469;42.720;23.252;2023-05-19T01:39:25;95124.94;;;10.20;100.00
20620;BME280;10469;42.720;23.252;2023-05-19T01:41:52;95134.63;;;10.21;100.00
20620;BME280;10469;42.720;23.252;2023-05-19T01:44:19;95138.34;;;10.20;100.00
20620;BME280;10469;42.720;23.252;2023-05-19T01:46:46;95115.59;;;10.11;100.00
20620;BME280;10469;42.720;23.252;2023-05-19T01:49:12;95126.53;;;10.10;100.00
20620;BME280;10469;42.720;23.252;2023-05-19T01:51:39;95132.25;;;10.13;100.00
20620;BME280;10469;42.720;23.252;2023-05-19T01:54:05;95120.66;;;10.01;100.00
20620;BME280;10469;42.720;23.252;2023-05-19T01:56:55;95130.25;;;10.09;100.00
20620;BME280;10469;42.720;23.252;2023-05-19T02:02:27;95130.19;;;9.97;100.00
20620;BME280;10469;42.720;23.252;2023-05-19T02:05:00;95131.38;;;10.01;100.00
20620;BME280;10469;42.720;23.252;2023-05-19T02:07:36;95103.44;;;9.78;100.00
20620;BME280;10469;42.720;23.252;2023-05-19T02:10:13;95131.25;;;9.96;100.00
20620;BME280;10469;42.720;23.252;2023-05-19T02:12:40;95130.81;;;9.99;100.00
20620;BME280;10469;42.720;23.252;2023-05-19T02:15:15;95139.91;;;9.98;100.00
20620;BME280;10469;42.720;23.252;2023-05-19T02:17:43;95151.19;;;10.00;100.00
20620;BME280;10469;42.720;23.252;2023-05-19T02:20:14;95138.59;;;10.00;100.00
20620;BME280;10469;42.720;23.252;2023-05-19T02:22:40;95146.56;;;10.07;100.00
20620;BME280;10469;42.720;23.252;2023-05-19T02:25:06;95144.03;;;10.12;100.00
20620;BME280;10469;42.720;23.252;2023-05-19T02:27:36;95153.81;;;10.18;100.00
20620;BME280;10469;42.720;23.252;2023-05-19T02:30:06;95116.72;;;10.03;100.00
20620;BME280;10469;42.720;23.252;2023-05-19T02:32:32;95135.16;;;10.12;100.00
20620;BME280;10469;42.720;23.252;2023-05-19T02:34:58;95146.38;;;10.20;100.00
20620;BME280;10469;42.720;23.252;2023-05-19T02:37:24;95119.78;;;10.07;100.00
20620;BME280;10469;42.720;23.252;2023-05-19T02:39:53;95146.97;;;10.22;100.00
20620;BME280;10469;42.720;23.252;2023-05-19T02:42:18;95129.94;;;10.17;100.00
20620;BME280;10469;42.720;23.252;2023-05-19T02:44:44;95142.25;;;10.24;100.00
20620;BME280;10469;42.720;23.252;2023-05-19T02:47:10;95130.03;;;10.10;100.00
20620;BME280;10469;42.720;23.252;2023-05-19T02:49:36;95146.53;;;10.25;100.00
20620;BME280;10469;42.720;23.252;2023-05-19T02:52:05;95150.13;;;10.19;100.00
20620;BME280;10469;42.720;23.252;2023-05-19T02:54:32;95150.88;;;10.08;100.00
20620;BME280;10469;42.720;23.252;2023-05-19T02:56:58;95144.84;;;10.13;100.00
20620;BME280;10469;42.720;23.252;2023-05-19T02:59:23;95132.81;;;10.03;100.00
20620;BME280;10469;42.720;23.252;2023-05-19T03:01:50;95144.03;;;10.12;100.00
20620;BME280;10469;42.720;23.252;2023-05-19T03:04:15;95153.31;;;10.10;100.00
20620;BME280;10469;42.720;23.252;2023-05-19T03:06:44;95151.94;;;10.07;100.00
20620;BME280;10469;42.720;23.252;2023-05-19T03:09:11;95163.47;;;10.08;100.00
20620;BME280;10469;42.720;23.252;2023-05-19T03:11:38;95163.59;;;10.13;100.00
20620;BME280;10469;42.720;23.252;2023-05-19T03:14:03;95166.88;;;10.15;100.00
20620;BME280;10469;42.720;23.252;2023-05-19T03:16:29;95174.25;;;10.19;100.00
20620;BME280;10469;42.720;23.252;2023-05-19T03:18:55;95147.94;;;9.98;100.00
20620;BME280;10469;42.720;23.252;2023-05-19T03:21:21;95164.84;;;10.10;100.00
20620;BME280;10469;42.720;23.252;2023-05-19T03:23:46;95153.56;;;10.08;100.00
20620;BME280;10469;42.720;23.252;2023-05-19T03:26:12;95153.13;;;10.11;100.00
20620;BME280;10469;42.720;23.252;2023-05-19T03:28:37;95162.22;;;10.22;100.00
20620;BME280;10469;42.720;23.252;2023-05-19T03:31:03;95166.03;;;10.33;100.00
20620;BME280;10469;42.720;23.252;2023-05-19T03:33:28;95152.72;;;10.26;100.00
20620;BME280;10469;42.720;23.252;2023-05-19T03:35:57;95164.88;;;10.40;100.00
20620;BME280;10469;42.720;23.252;2023-05-19T03:38:23;95158.72;;;10.40;100.00
20620;BME280;10469;42.720;23.252;2023-05-19T03:40:49;95156.44;;;10.55;100.00
20620;BME280;10469;42.720;23.252;2023-05-19T03:43:14;95151.88;;;10.55;100.00
20620;BME280;10469;42.720;23.252;2023-05-19T03:45:40;95141.97;;;10.56;100.00
20620;BME280;10469;42.720;23.252;2023-05-19T03:48:06;95152.03;;;10.72;100.00
20620;BME280;10469;42.720;23.252;2023-05-19T03:50:32;95151.34;;;10.77;100.00
20620;BME280;10469;42.720;23.252;2023-05-19T03:52:58;95165.25;;;10.97;100.00
20620;BME280;10469;42.720;23.252;2023-05-19T03:55:24;95168.91;;;11.15;100.00
20620;BME280;10469;42.720;23.252;2023-05-19T03:57:50;95164.44;;;10.97;100.00
20620;BME280;10469;42.720;23.252;2023-05-19T04:00:17;95164.44;;;11.09;100.00
20620;BME280;10469;42.720;23.252;2023-05-19T04:02:43;95169.38;;;11.23;100.00
20620;BME280;10469;42.720;23.252;2023-05-19T04:05:09;95162.94;;;11.36;100.00
20620;BME280;10469;42.720;23.252;2023-05-19T04:07:34;95150.56;;;11.35;100.00
20620;BME280;10469;42.720;23.252;2023-05-19T04:10:03;95142.13;;;11.55;100.00
20620;BME280;10469;42.720;23.252;2023-05-19T04:12:29;95148.53;;;11.89;100.00
20620;BME280;10469;42.720;23.252;2023-05-19T04:14:54;95164.09;;;12.16;100.00
20620;BME280;10469;42.720;23.252;2023-05-19T04:17:20;95165.91;;;12.55;100.00
20620;BME280;10469;42.720;23.252;2023-05-19T04:19:47;95160.25;;;12.86;100.00
20620;BME280;10469;42.720;23.252;2023-05-19T04:22:13;95165.25;;;13.27;100.00
20620;BME280;10469;42.720;23.252;2023-05-19T04:24:38;95159.47;;;13.36;100.00
20620;BME280;10469;42.720;23.252;2023-05-19T04:27:04;95147.28;;;13.16;100.00
20620;BME280;10469;42.720;23.252;2023-05-19T04:29:29;95170.97;;;13.31;100.00
20620;BME280;10469;42.720;23.252;2023-05-19T04:31:56;95161.53;;;13.89;100.00
20620;BME280;10469;42.720;23.252;2023-05-19T04:34:22;95154.44;;;13.61;100.00
20620;BME280;10469;42.720;23.252;2023-05-19T04:36:47;95158.13;;;13.55;100.00
20620;BME280;10469;42.720;23.252;2023-05-19T04:39:14;95164.81;;;13.69;100.00
20620;BME280;10469;42.720;23.252;2023-05-19T04:41:39;95156.22;;;13.94;100.00
20620;BME280;10469;42.720;23.252;2023-05-19T04:44:06;95154.56;;;13.71;100.00
20620;BME280;10469;42.720;23.252;2023-05-19T04:46:33;95159.59;;;14.06;100.00
20620;BME280;10469;42.720;23.252;2023-05-19T04:48:59;95164.75;;;14.08;100.00
20620;BME280;10469;42.720;23.252;2023-05-19T04:51:26;95159.66;;;13.90;100.00
20620;BME280;10469;42.720;23.252;2023-05-19T04:53:54;95142.06;;;13.43;100.00
20620;BME280;10469;42.720;23.252;2023-05-19T04:56:19;95171.19;;;14.07;100.00
20620;BME280;10469;42.720;23.252;2023-05-19T04:58:46;95158.25;;;14.04;100.00
20620;BME280;10469;42.720;23.252;2023-05-19T05:01:12;95174.28;;;14.16;100.00
20620;BME280;10469;42.720;23.252;2023-05-19T05:03:41;95175.47;;;14.03;100.00
20620;BME280;10469;42.720;23.252;2023-05-19T05:06:07;95174.16;;;14.05;100.00
20620;BME280;10469;42.720;23.252;2023-05-19T05:08:33;95176.13;;;14.37;100.00
20620;BME280;10469;42.720;23.252;2023-05-19T05:10:58;95172.94;;;14.62;100.00
20620;BME280;10469;42.720;23.252;2023-05-19T05:13:24;95179.47;;;13.78;100.00
20620;BME280;10469;42.720;23.252;2023-05-19T05:15:50;95161.81;;;13.49;100.00
20620;BME280;10469;42.720;23.252;2023-05-19T05:18:20;95181.41;;;13.44;100.00
20620;BME280;10469;42.720;23.252;2023-05-19T05:20:47;95186.19;;;14.20;100.00
20620;BME280;10469;42.720;23.252;2023-05-19T05:23:13;95175.94;;;14.93;100.00
20620;BME280;10469;42.720;23.252;2023-05-19T05:25:42;95171.28;;;14.88;100.00
20620;BME280;10469;42.720;23.252;2023-05-19T05:28:08;95158.75;;;15.04;100.00
20620;BME280;10469;42.720;23.252;2023-05-19T05:30:34;95160.41;;;14.78;100.00
20620;BME280;10469;42.720;23.252;2023-05-19T05:33:00;95146.19;;;14.88;100.00
20620;BME280;10469;42.720;23.252;2023-05-19T05:35:26;95160.44;;;13.68;100.00
20620;BME280;10469;42.720;23.252;2023-05-19T05:37:52;95175.72;;;14.01;100.00
20620;BME280;10469;42.720;23.252;2023-05-19T05:40:18;95168.66;;;14.66;100.00
20620;BME280;10469;42.720;23.252;2023-05-19T05:42:43;95165.34;;;15.18;100.00
20620;BME280;10469;42.720;23.252;2023-05-19T05:45:09;95172.53;;;14.75;100.00
20620;BME280;10469;42.720;23.252;2023-05-19T05:47:35;95173.59;;;15.34;100.00
20620;BME280;10469;42.720;23.252;2023-05-19T05:50:03;95166.13;;;15.51;100.00
20620;BME280;10469;42.720;23.252;2023-05-19T05:52:29;95180.50;;;15.99;100.00
20620;BME280;10469;42.720;23.252;2023-05-19T05:54:56;95170.94;;;15.76;100.00
20620;BME280;10469;42.720;23.252;2023-05-19T05:57:22;95169.41;;;15.16;100.00
20620;BME280;10469;42.720;23.252;2023-05-19T05:59:47;95183.97;;;16.62;100.00
20620;BME280;10469;42.720;23.252;2023-05-19T06:02:15;95172.34;;;16.62;100.00
20620;BME280;10469;42.720;23.252;2023-05-19T06:04:41;95178.69;;;17.44;100.00
20620;BME280;10469;42.720;23.252;2023-05-19T06:07:06;95173.53;;;17.42;100.00
20620;BME280;10469;42.720;23.252;2023-05-19T06:09:32;95182.47;;;17.63;100.00
20620;BME280;10469;42.720;23.252;2023-05-19T06:11:58;95178.13;;;17.67;100.00
20620;BME280;10469;42.720;23.252;2023-05-19T06:14:24;95180.22;;;19.20;100.00
20620;BME280;10469;42.720;23.252;2023-05-19T06:16:50;95179.50;;;20.74;100.00
20620;BME280;10469;42.720;23.252;2023-05-19T06:19:16;95184.84;;;20.36;100.00
20620;BME280;10469;42.720;23.252;2023-05-19T06:21:42;95180.66;;;19.33;100.00
20620;BME280;10469;42.720;23.252;2023-05-19T06:24:08;95175.00;;;19.92;100.00
20620;BME280;10469;42.720;23.252;2023-05-19T06:26:33;95168.56;;;19.49;100.00
20620;BME280;10469;42.720;23.252;2023-05-19T06:28:58;95144.59;;;20.09;100.00
20620;BME280;10469;42.720;23.252;2023-05-19T06:31:26;95175.84;;;21.87;100.00
20620;BME280;10469;42.720;23.252;2023-05-19T06:33:51;95167.34;;;23.12;100.00
20620;BME280;10469;42.720;23.252;2023-05-19T06:36:18;95178.16;;;22.40;100.00
20620;BME280;10469;42.720;23.252;2023-05-19T06:38:43;95177.28;;;21.51;100.00
20620;BME280;10469;42.720;23.252;2023-05-19T06:41:09;95186.22;;;21.38;100.00
20620;BME280;10469;42.720;23.252;2023-05-19T06:43:35;95173.28;;;23.73;100.00
20620;BME280;10469;42.720;23.252;2023-05-19T06:46:00;95177.53;;;22.57;99.78
20620;BME280;10469;42.720;23.252;2023-05-19T06:48:26;95172.63;;;23.31;92.10
20620;BME280;10469;42.720;23.252;2023-05-19T06:50:51;95171.38;;;22.65;98.36
20620;BME280;10469;42.720;23.252;2023-05-19T06:53:18;95178.47;;;21.26;100.00
20620;BME280;10469;42.720;23.252;2023-05-19T06:55:44;95176.53;;;22.39;100.00
20620;BME280;10469;42.720;23.252;2023-05-19T06:58:10;95179.66;;;21.20;100.00
20620;BME280;10469;42.720;23.252;2023-05-19T07:00:35;95183.41;;;22.36;100.00
20620;BME280;10469;42.720;23.252;2023-05-19T07:03:01;95186.06;;;22.55;100.00
20620;BME280;10469;42.720;23.252;2023-05-19T07:05:27;95197.38;;;21.42;100.00
20620;BME280;10469;42.720;23.252;2023-05-19T07:07:52;95188.78;;;21.48;100.00
20620;BME280;10469;42.720;23.252;2023-05-19T07:10:18;95184.28;;;23.37;99.40
20620;BME280;10469;42.720;23.252;2023-05-19T07:12:45;95169.97;;;23.17;100.00
20620;BME280;10469;42.720;23.252;2023-05-19T07:15:11;95179.72;;;23.99;89.04
20620;BME280;10469;42.720;23.252;2023-05-19T07:17:36;95174.56;;;23.31;93.54
20620;BME280;10469;42.720;23.252;2023-05-19T07:20:02;95195.44;;;21.42;100.00
20620;BME280;10469;42.720;23.252;2023-05-19T07:22:31;95189.38;;;22.52;100.00
20620;BME280;10469;42.720;23.252;2023-05-19T07:24:59;95159.53;;;22.56;100.00
20620;BME280;10469;42.720;23.252;2023-05-19T07:27:25;95181.63;;;22.45;100.00
20620;BME280;10469;42.720;23.252;2023-05-19T07:29:50;95193.63;;;21.84;100.00
20620;BME280;10469;42.720;23.252;2023-05-19T07:32:16;95190.41;;;21.82;100.00
20620;BME280;10469;42.720;23.252;2023-05-19T07:34:41;95196.78;;;21.59;100.00
20620;BME280;10469;42.720;23.252;2023-05-19T07:37:07;95189.06;;;21.33;100.00
20620;BME280;10469;42.720;23.252;2023-05-19T07:39:33;95189.69;;;21.06;100.00
20620;BME280;10469;42.720;23.252;2023-05-19T07:41:59;95189.59;;;21.30;100.00
20620;BME280;10469;42.720;23.252;2023-05-19T07:44:25;95193.09;;;21.36;100.00
20620;BME280;10469;42.720;23.252;2023-05-19T07:46:52;95198.84;;;21.34;100.00
20620;BME280;10469;42.720;23.252;2023-05-19T07:49:17;95177.19;;;23.36;94.60
20620;BME280;10469;42.720;23.252;2023-05-19T07:51:43;95180.06;;;22.81;94.78
20620;BME280;10469;42.720;23.252;2023-05-19T07:54:08;95171.34;;;23.28;94.34
20620;BME280;10469;42.720;23.252;2023-05-19T07:56:34;95171.59;;;23.41;90.34
20620;BME280;10469;42.720;23.252;2023-05-19T07:59:00;95187.81;;;24.36;87.37
20620;BME280;10469;42.720;23.252;2023-05-19T08:01:26;95183.25;;;24.22;87.42
20620;BME280;10469;42.720;23.252;2023-05-19T08:03:52;95179.53;;;22.92;94.57
20620;BME280;10469;42.720;23.252;2023-05-19T08:06:17;95188.91;;;24.57;87.90
20620;BME280;10469;42.720;23.252;2023-05-19T08:08:43;95165.78;;;24.10;87.00
20620;BME280;10469;42.720;23.252;2023-05-19T08:11:09;95182.91;;;22.48;97.34
20620;BME280;10469;42.720;23.252;2023-05-19T08:13:34;95177.22;;;22.86;96.08
20620;BME280;10469;42.720;23.252;2023-05-19T08:16:00;95180.31;;;23.65;95.31
20620;BME280;10469;42.720;23.252;2023-05-19T08:18:25;95175.47;;;23.62;91.93
20620;BME280;10469;42.720;23.252;2023-05-19T08:20:51;95185.31;;;21.75;99.70
20620;BME280;10469;42.720;23.252;2023-05-19T08:23:16;95182.78;;;22.94;95.27
20620;BME280;10469;42.720;23.252;2023-05-19T08:25:42;95173.75;;;21.32;100.00
20620;BME280;10469;42.720;23.252;2023-05-19T08:28:09;95176.78;;;22.10;100.00
20620;BME280;10469;42.720;23.252;2023-05-19T08:30:34;95164.50;;;23.62;95.56
20620;BME280;10469;42.720;23.252;2023-05-19T08:33:00;95165.44;;;25.08;86.41
20620;BME280;10469;42.720;23.252;2023-05-19T08:35:26;95161.84;;;26.03;75.40
20620;BME280;10469;42.720;23.252;2023-05-19T08:37:52;95163.50;;;24.43;85.03
20620;BME280;10469;42.720;23.252;2023-05-19T08:40:17;95162.16;;;24.71;87.09
20620;BME280;10469;42.720;23.252;2023-05-19T08:42:44;95160.28;;;26.32;81.64
20620;BME280;10469;42.720;23.252;2023-05-19T08:45:10;95170.31;;;25.28;77.95
20620;BME280;10469;42.720;23.252;2023-05-19T08:47:36;95158.94;;;27.06;68.62
20620;BME280;10469;42.720;23.252;2023-05-19T08:50:06;95162.16;;;28.37;58.06
20620;BME280;10469;42.720;23.252;2023-05-19T08:55:30;95145.50;;;29.47;48.72
20620;BME280;10469;42.720;23.252;2023-05-19T08:57:59;95160.50;;;29.34;47.84
20620;BME280;10469;42.720;23.252;2023-05-19T09:00:25;95149.50;;;29.90;46.71
20620;BME280;10469;42.720;23.252;2023-05-19T09:02:51;95148.25;;;28.70;55.63
20620;BME280;10469;42.720;23.252;2023-05-19T09:05:18;95119.97;;;28.73;51.76
20620;BME280;10469;42.720;23.252;2023-05-19T09:07:44;95133.66;;;28.57;54.12
20620;BME280;10469;42.720;23.252;2023-05-19T09:10:10;95144.41;;;27.47;56.85
20620;BME280;10469;42.720;23.252;2023-05-19T09:12:44;95141.22;;;27.57;56.59
20620;BME280;10469;42.720;23.252;2023-05-19T09:15:11;95133.94;;;26.69;58.29
20620;BME280;10469;42.720;23.252;2023-05-19T09:17:40;95134.78;;;27.53;60.72
20620;BME280;10469;42.720;23.252;2023-05-19T09:20:06;95125.38;;;29.46;51.11
20620;BME280;10469;42.720;23.252;2023-05-19T09:22:44;95124.78;;;28.88;50.71
20620;BME280;10469;42.720;23.252;2023-05-19T09:25:18;95102.94;;;26.21;57.65
20620;BME280;10469;42.720;23.252;2023-05-19T09:27:44;95117.97;;;27.34;60.65
20620;BME280;10469;42.720;23.252;2023-05-19T09:30:10;95104.25;;;26.15;67.78
20620;BME280;10469;42.720;23.252;2023-05-19T09:32:36;95121.88;;;27.45;60.37
20620;BME280;10469;42.720;23.252;2023-05-19T09:35:02;95119.84;;;25.94;76.36
20620;BME280;10469;42.720;23.252;2023-05-19T09:37:28;95119.97;;;27.79;57.05
20620;BME280;10469;42.720;23.252;2023-05-19T09:39:55;95130.25;;;26.65;57.25
20620;BME280;10469;42.720;23.252;2023-05-19T09:42:25;95119.25;;;25.62;63.58
20620;BME280;10469;42.720;23.252;2023-05-19T09:45:03;95123.38;;;26.03;64.49
20620;BME280;10469;42.720;23.252;2023-05-19T09:47:36;95128.69;;;27.26;60.04
20620;BME280;10469;42.720;23.252;2023-05-19T09:50:11;95113.41;;;26.28;61.39
20620;BME280;10469;42.720;23.252;2023-05-19T09:52:38;95115.84;;;26.30;58.03
20620;BME280;10469;42.720;23.252;2023-05-19T09:55:11;95104.22;;;25.60;57.22
20620;BME280;10469;42.720;23.252;2023-05-19T09:57:38;95102.66;;;26.52;59.92
20620;BME280;10469;42.720;23.252;2023-05-19T10:00:05;95108.53;;;28.01;54.26
20620;BME280;10469;42.720;23.252;2023-05-19T10:02:46;95104.84;;;26.30;62.92
20620;BME280;10469;42.720;23.252;2023-05-19T10:05:14;95105.69;;;24.62;74.89
20620;BME280;10469;42.720;23.252;2023-05-19T10:07:51;95090.34;;;23.19;83.95
20620;BME280;10469;42.720;23.252;2023-05-19T10:10:16;95106.66;;;22.74;89.20
20620;BME280;10469;42.720;23.252;2023-05-19T10:12:45;95104.31;;;22.81;89.00
20620;BME280;10469;42.720;23.252;2023-05-19T10:15:17;95100.06;;;25.01;75.96
20620;BME280;10469;42.720;23.252;2023-05-19T10:17:44;95092.97;;;26.38;60.64
20620;BME280;10469;42.720;23.252;2023-05-19T10:20:12;95085.38;;;24.97;63.88
20620;BME280;10469;42.720;23.252;2023-05-19T10:22:38;95078.38;;;22.78;72.83
20620;BME280;10469;42.720;23.252;2023-05-19T10:25:05;95094.97;;;22.46;79.89
20620;BME280;10469;42.720;23.252;2023-05-19T10:27:34;95093.38;;;22.31;81.34
20620;BME280;10469;42.720;23.252;2023-05-19T10:30:11;95088.72;;;22.04;83.63
20620;BME280;10469;42.720;23.252;2023-05-19T10:32:39;95093.84;;;21.92;85.95
20620;BME280;10469;42.720;23.252;2023-05-19T10:40:32;95081.09;;;24.39;66.26
20620;BME280;10469;42.720;23.252;2023-05-19T10:45:37;95083.63;;;22.52;79.36
20620;BME280;10469;42.720;23.252;2023-05-19T10:48:09;95094.38;;;22.21;81.86
20620;BME280;10469;42.720;23.252;2023-05-19T10:50:35;95080.59;;;22.54;79.53
20620;BME280;10469;42.720;23.252;2023-05-19T10:53:03;95062.78;;;23.15;76.05
20620;BME280;10469;42.720;23.252;2023-05-19T10:56:04;95080.44;;;22.37;80.21
20620;BME280;10469;42.720;23.252;2023-05-19T11:01:13;95072.63;;;27.10;54.42
20620;BME280;10469;42.720;23.252;2023-05-19T11:03:46;95063.06;;;28.19;49.74
20620;BME280;10469;42.720;23.252;2023-05-19T11:06:31;95075.75;;;25.73;55.26
20620;BME280;10469;42.720;23.252;2023-05-19T11:14:10;95068.44;;;26.62;57.98
20620;BME280;10469;42.720;23.252;2023-05-19T11:16:36;95057.66;;;27.20;54.80
20620;BME280;10469;42.720;23.252;2023-05-19T11:19:01;95053.50;;;25.66;59.82
20620;BME280;10469;42.720;23.252;2023-05-19T11:21:49;95055.63;;;24.39;68.76
20620;BME280;10469;42.720;23.252;2023-05-19T11:27:33;95060.19;;;24.87;60.80
20620;BME280;10469;42.720;23.252;2023-05-19T11:32:33;95062.00;;;25.26;59.19
20620;BME280;10469;42.720;23.252;2023-05-19T11:34:59;95063.94;;;25.08;58.19
20620;BME280;10469;42.720;23.252;2023-05-19T11:37:25;95068.56;;;23.98;59.06
20620;BME280;10469;42.720;23.252;2023-05-19T11:39:52;95034.63;;;23.46;62.78
20620;BME280;10469;42.720;23.252;2023-05-19T11:42:18;95037.91;;;23.03;67.34
20620;BME280;10469;42.720;23.252;2023-05-19T11:44:44;95049.28;;;22.60;70.34
20620;BME280;10469;42.720;23.252;2023-05-19T11:47:11;95062.59;;;21.84;73.61
20620;BME280;10469;42.720;23.252;2023-05-19T11:49:37;95059.66;;;21.53;78.08
20620;BME280;10469;42.720;23.252;2023-05-19T11:52:03;95044.41;;;21.52;82.95
20620;BME280;10469;42.720;23.252;2023-05-19T11:54:30;95056.03;;;21.25;85.41
20620;BME280;10469;42.720;23.252;2023-05-19T11:56:58;95037.38;;;21.32;85.96
20620;BME280;10469;42.720;23.252;2023-05-19T11:59:34;95064.50;;;21.56;82.72
20620;BME280;10469;42.720;23.252;2023-05-19T12:02:01;95069.06;;;21.74;81.37
20620;BME280;10469;42.720;23.252;2023-05-19T12:04:29;94996.84;;;21.25;81.56
20620;BME280;10469;42.720;23.252;2023-05-19T12:06:55;95054.50;;;21.19;87.30
20620;BME280;10469;42.720;23.252;2023-05-19T12:09:22;95059.53;;;20.79;89.88
20620;BME280;10469;42.720;23.252;2023-05-19T12:11:49;95063.56;;;20.63;88.24
20620;BME280;10469;42.720;23.252;2023-05-19T12:14:15;95086.47;;;20.62;91.25
20620;BME280;10469;42.720;23.252;2023-05-19T12:16:41;95107.31;;;19.27;100.00
20620;BME280;10469;42.720;23.252;2023-05-19T12:19:07;95109.19;;;18.53;100.00
20620;BME280;10469;42.720;23.252;2023-05-19T12:21:34;95124.69;;;17.78;100.00
20620;BME280;10469;42.720;23.252;2023-05-19T12:24:00;95097.34;;;16.57;100.00
20620;BME280;10469;42.720;23.252;2023-05-19T12:26:26;95136.59;;;15.82;100.00
20620;BME280;10469;42.720;23.252;2023-05-19T12:28:51;95152.75;;;14.97;100.00
20620;BME280;10469;42.720;23.252;2023-05-19T12:31:18;95132.06;;;14.80;100.00
20620;BME280;10469;42.720;23.252;2023-05-19T12:33:48;95129.66;;;14.79;100.00
20620;BME280;10469;42.720;23.252;2023-05-19T12:36:19;95130.97;;;14.76;100.00
20620;BME280;10469;42.720;23.252;2023-05-19T12:38:44;95162.25;;;14.72;100.00
20620;BME280;10469;42.720;23.252;2023-05-19T12:41:11;95128.03;;;14.51;100.00
20620;BME280;10469;42.720;23.252;2023-05-19T12:43:37;95138.44;;;14.64;100.00
20620;BME280;10469;42.720;23.252;2023-05-19T12:46:10;95136.34;;;14.76;100.00
20620;BME280;10469;42.720;23.252;2023-05-19T12:48:41;95112.00;;;14.98;100.00
20620;BME280;10469;42.720;23.252;2023-05-19T12:51:07;95117.09;;;15.32;100.00
20620;BME280;10469;42.720;23.252;2023-05-19T12:53:32;95092.75;;;15.74;100.00
20620;BME280;10469;42.720;23.252;2023-05-19T12:55:58;95077.53;;;16.21;100.00
20620;BME280;10469;42.720;23.252;2023-05-19T12:58:24;95080.31;;;16.72;100.00
20620;BME280;10469;42.720;23.252;2023-05-19T13:00:49;95038.34;;;16.74;100.00
20620;BME280;10469;42.720;23.252;2023-05-19T13:03:16;95089.53;;;17.32;100.00
20620;BME280;10469;42.720;23.252;2023-05-19T13:05:44;95066.22;;;17.36;100.00
20620;BME280;10469;42.720;23.252;2023-05-19T13:08:20;95081.56;;;17.71;100.00
20620;BME280;10469;42.720;23.252;2023-05-19T13:10:48;95085.91;;;17.77;100.00
20620;BME280;10469;42.720;23.252;2023-05-19T13:13:14;95094.50;;;18.00;100.00
20620;BME280;10469;42.720;23.252;2023-05-19T13:15:43;95089.75;;;18.31;100.00